Time,TemperatureF,DewpointF,PressureIn,WindDirection,WindDirectionDegrees,WindSpeedMPH,WindSpeedGustMPH,Humidity,HourlyPrecipIn,Conditions,Clouds,dailyrainin,SoftwareType,DateUTC
2013-09-09 00:05:00,51.1,43.1,30.06,ESE,108,0.0,0.0,74,0.00,,,0.00,Wunderground v.1.15,2013-09-09 04:05:00,
2013-09-09 00:10:00,50.8,42.8,30.06,ESE,108,0.0,0.0,74,0.00,,,0.00,Wunderground v.1.15,2013-09-09 04:10:00,
2013-09-09 00:20:00,50.2,42.9,30.05,ESE,108,0.0,0.0,76,0.00,,,0.00,Wunderground v.1.15,2013-09-09 04:20:00,
2013-09-09 00:25:00,49.9,42.3,30.06,ESE,108,0.0,0.0,75,0.00,,,0.00,Wunderground v.1.15,2013-09-09 04:25:00,
2013-09-09 00:30:00,49.7,42.8,30.06,ESE,108,0.0,0.0,77,0.00,,,0.00,Wunderground v.1.15,2013-09-09 04:30:00,
2013-09-09 00:35:00,49.3,42.7,30.07,ESE,108,0.0,0.0,78,0.00,,,0.00,Wunderground v.1.15,2013-09-09 04:35:00,
2013-09-09 00:45:00,48.8,42.6,30.06,ESE,107,0.0,0.0,79,0.00,,,0.00,Wunderground v.1.15,2013-09-09 04:45:00,
2013-09-09 00:55:00,48.3,42.4,30.07,ESE,108,0.0,0.0,80,0.00,,,0.00,Wunderground v.1.15,2013-09-09 04:55:00,
2013-09-09 01:00:00,48.0,42.1,30.07,ESE,107,0.0,0.0,80,0.00,,,0.00,Wunderground v.1.15,2013-09-09 05:00:00,
2013-09-09 01:05:00,47.8,42.6,30.07,ESE,108,0.0,0.0,82,0.00,,,0.00,Wunderground v.1.15,2013-09-09 05:05:00,
2013-09-09 01:10:00,47.6,42.4,30.08,ESE,108,0.0,0.0,82,0.00,,,0.00,Wunderground v.1.15,2013-09-09 05:10:00,
2013-09-09 01:15:00,47.4,42.5,30.08,ESE,108,0.0,0.0,83,0.00,,,0.00,Wunderground v.1.15,2013-09-09 05:15:00,
2013-09-09 01:25:00,46.9,42.0,30.08,ESE,108,0.0,0.0,83,0.00,,,0.00,Wunderground v.1.15,2013-09-09 05:25:00,
2013-09-09 01:35:00,46.4,42.1,30.08,ESE,107,0.0,0.0,85,0.00,,,0.00,Wunderground v.1.15,2013-09-09 05:35:00,
2013-09-09 01:40:00,46.1,41.8,30.08,ESE,108,0.0,0.0,85,0.00,,,0.00,Wunderground v.1.15,2013-09-09 05:40:00,
2013-09-09 01:45:00,45.9,41.9,30.08,ESE,108,0.0,0.0,86,0.00,,,0.00,Wunderground v.1.15,2013-09-09 05:45:00,
2013-09-09 01:55:00,45.6,41.7,30.09,ESE,108,0.0,0.0,86,0.00,,,0.00,Wunderground v.1.15,2013-09-09 05:55:00,
2013-09-09 02:05:00,45.6,42.0,30.09,ESE,108,0.0,0.0,87,0.00,,,0.00,Wunderground v.1.15,2013-09-09 06:05:00,
2013-09-09 02:10:00,45.6,42.0,30.09,ESE,108,0.0,0.0,87,0.00,,,0.00,Wunderground v.1.15,2013-09-09 06:10:00,
2013-09-09 02:20:00,45.4,41.5,30.09,ESE,108,0.0,0.0,86,0.00,,,0.00,Wunderground v.1.15,2013-09-09 06:20:00,
2013-09-09 02:25:00,45.2,41.3,30.09,ESE,108,0.0,0.0,86,0.00,,,0.00,Wunderground v.1.15,2013-09-09 06:25:00,
2013-09-09 02:35:00,45.0,41.4,30.09,ESE,108,0.0,0.0,87,0.00,,,0.00,Wunderground v.1.15,2013-09-09 06:35:00,
2013-09-09 02:40:00,44.9,41.3,30.09,ESE,108,0.0,0.0,87,0.00,,,0.00,Wunderground v.1.15,2013-09-09 06:40:00,
2013-09-09 02:50:00,44.8,41.5,30.09,ESE,108,0.0,0.0,88,0.00,,,0.00,Wunderground v.1.15,2013-09-09 06:50:00,
2013-09-09 03:00:00,44.5,41.2,30.09,ESE,107,0.0,0.0,88,0.00,,,0.00,Wunderground v.1.15,2013-09-09 07:00:00,
2013-09-09 03:10:00,44.5,41.2,30.10,ESE,107,0.0,0.0,88,0.00,,,0.00,Wunderground v.1.15,2013-09-09 07:10:00,
2013-09-09 03:20:00,44.3,41.3,30.10,ESE,108,0.0,0.0,89,0.00,,,0.00,Wunderground v.1.15,2013-09-09 07:20:00,
2013-09-09 03:30:00,44.2,41.2,30.10,ESE,108,0.0,0.0,89,0.00,,,0.00,Wunderground v.1.15,2013-09-09 07:30:00,
2013-09-09 03:40:00,44.0,41.0,30.10,ESE,108,0.0,0.0,89,0.00,,,0.00,Wunderground v.1.15,2013-09-09 07:40:00,
2013-09-09 03:50:00,43.8,40.8,30.11,ESE,108,0.0,0.0,89,0.00,,,0.00,Wunderground v.1.15,2013-09-09 07:50:00,
2013-09-09 04:00:00,43.4,40.7,30.11,ESE,107,0.0,0.0,90,0.00,,,0.00,Wunderground v.1.15,2013-09-09 08:00:00,
2013-09-09 04:10:00,42.9,40.2,30.12,ESE,108,0.0,0.0,90,0.00,,,0.00,Wunderground v.1.15,2013-09-09 08:10:00,
2013-09-09 04:20:00,42.5,40.1,30.12,ESE,108,0.0,0.0,91,0.00,,,0.00,Wunderground v.1.15,2013-09-09 08:20:00,
2013-09-09 04:25:00,42.5,40.1,30.12,ESE,108,0.0,0.0,91,0.00,,,0.00,Wunderground v.1.15,2013-09-09 08:25:00,
2013-09-09 04:35:00,42.5,40.3,30.12,ESE,108,0.0,0.0,92,0.00,,,0.00,Wunderground v.1.15,2013-09-09 08:35:00,
2013-09-09 04:45:00,42.6,40.4,30.13,ESE,108,0.0,0.0,92,0.00,,,0.00,Wunderground v.1.15,2013-09-09 08:45:00,
2013-09-09 04:50:00,42.6,40.4,30.13,ESE,108,0.0,0.0,92,0.00,,,0.00,Wunderground v.1.15,2013-09-09 08:50:00,
2013-09-09 05:00:00,42.5,40.3,30.13,ESE,108,0.0,0.0,92,0.00,,,0.00,Wunderground v.1.15,2013-09-09 09:00:00,
2013-09-09 05:10:00,42.5,40.3,30.14,ESE,107,0.0,0.0,92,0.00,,,0.00,Wunderground v.1.15,2013-09-09 09:10:00,
2013-09-09 05:15:00,42.5,40.3,30.14,ESE,107,0.0,0.0,92,0.00,,,0.00,Wunderground v.1.15,2013-09-09 09:15:00,
2013-09-09 05:25:00,42.4,40.2,30.14,ESE,107,0.0,0.0,92,0.00,,,0.00,Wunderground v.1.15,2013-09-09 09:25:00,
2013-09-09 05:35:00,42.3,40.4,30.14,ESE,107,0.0,0.0,93,0.00,,,0.00,Wunderground v.1.15,2013-09-09 09:35:00,
2013-09-09 05:45:00,42.4,40.5,30.15,ESE,108,0.0,0.0,93,0.00,,,0.00,Wunderground v.1.15,2013-09-09 09:45:00,
2013-09-09 05:55:00,42.3,40.4,30.15,ESE,108,0.0,0.0,93,0.00,,,0.00,Wunderground v.1.15,2013-09-09 09:55:00,
2013-09-09 06:05:00,42.0,39.8,30.16,ESE,108,0.0,0.0,92,0.00,,,0.00,Wunderground v.1.15,2013-09-09 10:05:00,
2013-09-09 06:10:00,41.8,39.6,30.16,ESE,108,0.0,0.0,92,0.00,,,0.00,Wunderground v.1.15,2013-09-09 10:10:00,
2013-09-09 06:15:00,41.6,39.7,30.16,ESE,108,0.0,0.0,93,0.00,,,0.00,Wunderground v.1.15,2013-09-09 10:15:00,
2013-09-09 06:25:00,41.3,39.4,30.17,ESE,107,0.0,0.0,93,0.00,,,0.00,Wunderground v.1.15,2013-09-09 10:25:00,
2013-09-09 06:35:00,41.4,39.8,30.17,ESE,107,0.0,0.0,94,0.00,,,0.00,Wunderground v.1.15,2013-09-09 10:35:00,
2013-09-09 06:40:00,41.3,39.4,30.17,ESE,108,0.0,0.0,93,0.00,,,0.00,Wunderground v.1.15,2013-09-09 10:40:00,
2013-09-09 06:45:00,41.1,39.2,30.18,ESE,108,0.0,0.0,93,0.00,,,0.00,Wunderground v.1.15,2013-09-09 10:45:00,
2013-09-09 06:55:00,41.0,39.4,30.18,ESE,107,0.0,0.0,94,0.00,,,0.00,Wunderground v.1.15,2013-09-09 10:55:00,
2013-09-09 07:05:00,41.3,40.0,30.18,ESE,108,0.0,0.0,95,0.00,,,0.00,Wunderground v.1.15,2013-09-09 11:05:00,
2013-09-09 07:10:00,41.4,40.1,30.18,ESE,107,0.0,0.0,95,0.00,,,0.00,Wunderground v.1.15,2013-09-09 11:10:00,
2013-09-09 09:45:00,59.4,46.4,30.19,SE,132,0.0,0.0,62,0.00,,,0.00,Wunderground v.1.15,2013-09-09 13:45:00,
2013-09-09 09:55:00,59.4,47.2,30.19,SE,128,0.0,0.0,64,0.00,,,0.00,Wunderground v.1.15,2013-09-09 13:55:00,
2013-09-09 10:05:00,59.8,45.9,30.19,SE,128,0.0,0.0,60,0.00,,,0.00,Wunderground v.1.15,2013-09-09 14:05:00,
2013-09-09 10:15:00,59.5,46.9,30.19,SE,128,0.0,0.0,63,0.00,,,0.00,Wunderground v.1.15,2013-09-09 14:15:00,
2013-09-09 10:20:00,59.0,45.6,30.19,ENE,57,0.0,0.0,61,0.00,,,0.00,Wunderground v.1.15,2013-09-09 14:20:00,
2013-09-09 10:30:00,59.0,46.8,30.19,NE,54,0.0,0.0,64,0.00,,,0.00,Wunderground v.1.15,2013-09-09 14:30:00,
2013-09-09 10:40:00,59.0,46.0,30.18,NE,50,0.0,0.0,62,0.00,,,0.00,Wunderground v.1.15,2013-09-09 14:40:00,
2013-09-09 10:50:00,60.2,47.1,30.18,NE,50,0.0,0.0,62,0.00,,,0.00,Wunderground v.1.15,2013-09-09 14:50:00,
2013-09-09 11:00:00,60.9,47.8,30.18,NE,34,0.0,0.0,62,0.00,,,0.00,Wunderground v.1.15,2013-09-09 15:00:00,
2013-09-09 11:10:00,61.8,48.6,30.18,ENE,70,0.0,0.0,62,0.00,,,0.00,Wunderground v.1.15,2013-09-09 15:10:00,
2013-09-09 11:20:00,61.5,47.9,30.18,NNE,24,0.0,0.0,61,0.00,,,0.00,Wunderground v.1.15,2013-09-09 15:20:00,
2013-09-09 11:30:00,61.1,49.2,30.17,NNE,30,0.0,0.0,65,0.00,,,0.00,Wunderground v.1.15,2013-09-09 15:30:00,
2013-09-09 11:35:00,61.1,49.2,30.17,NNE,31,0.0,0.0,65,0.00,,,0.00,Wunderground v.1.15,2013-09-09 15:35:00,
2013-09-09 11:45:00,61.1,49.2,30.17,NNE,30,0.0,0.0,65,0.00,,,0.00,Wunderground v.1.15,2013-09-09 15:45:00,
2013-09-09 11:50:00,61.6,48.0,30.17,NE,37,0.0,0.0,61,0.00,,,0.00,Wunderground v.1.15,2013-09-09 15:50:00,
2013-09-09 12:00:00,62.0,46.6,30.17,NW,305,0.0,0.0,57,0.00,,,0.00,Wunderground v.1.15,2013-09-09 16:00:00,
2013-09-09 12:10:00,62.0,48.0,30.16,ENE,74,1.0,1.0,60,0.00,,,0.00,Wunderground v.1.15,2013-09-09 16:10:00,
2013-09-09 12:20:00,62.6,49.0,30.16,ENE,64,0.0,0.0,61,0.00,,,0.00,Wunderground v.1.15,2013-09-09 16:20:00,
2013-09-09 12:30:00,63.2,48.2,30.16,ENE,63,0.0,0.0,58,0.00,,,0.00,Wunderground v.1.15,2013-09-09 16:30:00,
2013-09-09 12:40:00,64.1,49.9,30.15,ENE,65,0.0,0.0,60,0.00,,,0.00,Wunderground v.1.15,2013-09-09 16:40:00,
2013-09-09 12:50:00,64.3,49.2,30.15,ENE,72,1.0,1.0,58,0.00,,,0.00,Wunderground v.1.15,2013-09-09 16:50:00,
2013-09-09 12:55:00,64.5,49.8,30.15,ENE,73,1.0,1.0,59,0.00,,,0.00,Wunderground v.1.15,2013-09-09 16:55:00,
2013-09-09 13:05:00,65.3,50.1,30.14,NNE,30,0.0,1.0,58,0.00,,,0.00,Wunderground v.1.15,2013-09-09 17:05:00,
2013-09-09 13:15:00,65.9,49.8,30.13,NE,38,0.0,0.0,56,0.00,,,0.00,Wunderground v.1.15,2013-09-09 17:15:00,
2013-09-09 13:20:00,65.8,51.5,30.13,NE,55,0.0,0.0,60,0.00,,,0.00,Wunderground v.1.15,2013-09-09 17:20:00,
2013-09-09 13:30:00,65.8,51.1,30.13,ESE,111,1.0,1.0,59,0.00,,,0.00,Wunderground v.1.15,2013-09-09 17:30:00,
2013-09-09 13:40:00,65.4,50.2,30.13,East,98,0.0,0.0,58,0.00,,,0.00,Wunderground v.1.15,2013-09-09 17:40:00,
2013-09-09 13:45:00,65.2,48.6,30.13,NE,56,0.0,0.0,55,0.00,,,0.00,Wunderground v.1.15,2013-09-09 17:45:00,
2013-09-09 13:55:00,65.1,51.3,30.13,NE,43,0.0,0.0,61,0.00,,,0.00,Wunderground v.1.15,2013-09-09 17:55:00,
2013-09-09 14:05:00,65.9,50.7,30.12,NE,40,0.0,0.0,58,0.00,,,0.00,Wunderground v.1.15,2013-09-09 18:05:00,
2013-09-09 14:15:00,66.4,48.7,30.12,ESE,117,0.0,0.0,53,0.00,,,0.00,Wunderground v.1.15,2013-09-09 18:15:00,
2013-09-09 14:20:00,66.5,50.8,30.12,NE,42,0.0,0.0,57,0.00,,,0.00,Wunderground v.1.15,2013-09-09 18:20:00,
2013-09-09 14:30:00,66.5,53.1,30.12,ENE,65,0.0,0.0,62,0.00,,,0.00,Wunderground v.1.15,2013-09-09 18:30:00,
2013-09-09 14:40:00,66.1,51.4,30.12,ENE,67,0.0,0.0,59,0.00,,,0.00,Wunderground v.1.15,2013-09-09 18:40:00,
2013-09-09 14:45:00,65.7,49.1,30.12,ENE,65,0.0,0.0,55,0.00,,,0.00,Wunderground v.1.15,2013-09-09 18:45:00,
2013-09-09 14:55:00,65.0,50.3,30.12,ENE,66,0.0,0.0,59,0.00,,,0.00,Wunderground v.1.15,2013-09-09 18:55:00,
2013-09-09 15:05:00,64.1,51.7,30.13,ENE,66,0.0,0.0,64,0.00,,,0.00,Wunderground v.1.15,2013-09-09 19:05:00,
2013-09-09 15:10:00,63.7,51.3,30.13,ENE,66,0.0,0.0,64,0.00,,,0.00,Wunderground v.1.15,2013-09-09 19:10:00,
2013-09-09 15:20:00,63.3,51.7,30.13,ENE,65,0.0,0.0,66,0.00,,,0.00,Wunderground v.1.15,2013-09-09 19:20:00,
2013-09-09 15:30:00,63.3,51.3,30.13,ENE,66,0.0,0.0,65,0.00,,,0.00,Wunderground v.1.15,2013-09-09 19:30:00,
2013-09-09 15:35:00,63.4,51.8,30.13,ENE,66,0.0,0.0,66,0.00,,,0.00,Wunderground v.1.15,2013-09-09 19:35:00,
2013-09-09 15:45:00,63.7,52.9,30.12,ENE,66,0.0,0.0,68,0.00,,,0.00,Wunderground v.1.15,2013-09-09 19:45:00,
2013-09-09 15:55:00,63.9,53.5,30.12,ENE,69,0.0,0.0,69,0.00,,,0.00,Wunderground v.1.15,2013-09-09 19:55:00,
2013-09-09 16:05:00,64.2,53.8,30.11,ENE,69,0.0,0.0,69,0.00,,,0.00,Wunderground v.1.15,2013-09-09 20:05:00,
2013-09-09 16:15:00,64.7,54.7,30.11,ENE,78,0.0,0.0,70,0.00,,,0.00,Wunderground v.1.15,2013-09-09 20:15:00,
2013-09-09 16:25:00,64.8,54.0,30.10,ENE,78,0.0,0.0,68,0.00,,,0.00,Wunderground v.1.15,2013-09-09 20:25:00,
2013-09-09 16:35:00,64.7,54.3,30.10,ENE,78,0.0,0.0,69,0.00,,,0.00,Wunderground v.1.15,2013-09-09 20:35:00,
2013-09-09 16:45:00,64.2,55.0,30.10,ENE,78,0.0,0.0,72,0.00,,,0.00,Wunderground v.1.15,2013-09-09 20:45:00,
2013-09-09 16:55:00,63.6,54.4,30.10,ESE,110,0.0,4.0,72,0.00,,,0.00,Wunderground v.1.15,2013-09-09 20:55:00,
2013-09-09 17:05:00,63.4,52.7,30.10,NE,41,0.0,0.0,68,0.00,,,0.00,Wunderground v.1.15,2013-09-09 21:05:00,
2013-09-09 17:15:00,63.2,52.1,30.10,ENE,61,0.0,0.0,67,0.00,,,0.00,Wunderground v.1.15,2013-09-09 21:15:00,
2013-09-09 17:20:00,63.1,52.8,30.11,ENE,61,0.0,0.0,69,0.00,,,0.00,Wunderground v.1.15,2013-09-09 21:20:00,
2013-09-09 17:30:00,62.9,52.6,30.10,ENE,60,0.0,0.0,69,0.00,,,0.00,Wunderground v.1.15,2013-09-09 21:30:00,
2013-09-09 17:40:00,62.5,52.6,30.10,ENE,60,0.0,0.0,70,0.00,,,0.00,Wunderground v.1.15,2013-09-09 21:40:00,
2013-09-09 17:50:00,62.0,52.1,30.10,ENE,60,0.0,0.0,70,0.00,,,0.00,Wunderground v.1.15,2013-09-09 21:50:00,
2013-09-09 18:00:00,61.4,51.9,30.11,ENE,60,0.0,0.0,71,0.00,,,0.00,Wunderground v.1.15,2013-09-09 22:00:00,
2013-09-09 18:10:00,60.9,52.2,30.10,ENE,60,0.0,0.0,73,0.00,,,0.00,Wunderground v.1.15,2013-09-09 22:10:00,
2013-09-09 18:20:00,60.2,52.2,30.11,ENE,60,0.0,0.0,75,0.00,,,0.00,Wunderground v.1.15,2013-09-09 22:20:00,
2013-09-09 18:30:00,59.5,52.3,30.11,ENE,60,0.0,0.0,77,0.00,,,0.00,Wunderground v.1.15,2013-09-09 22:30:00,
2013-09-09 18:40:00,59.0,52.5,30.10,ENE,60,0.0,0.0,79,0.00,,,0.00,Wunderground v.1.15,2013-09-09 22:40:00,
2013-09-09 18:45:00,58.5,52.0,30.10,ENE,60,0.0,0.0,79,0.00,,,0.00,Wunderground v.1.15,2013-09-09 22:45:00,
2013-09-09 18:55:00,57.8,52.0,30.10,ENE,60,0.0,0.0,81,0.00,,,0.00,Wunderground v.1.15,2013-09-09 22:55:00,
2013-09-09 19:05:00,57.2,51.8,30.10,ENE,60,0.0,0.0,82,0.00,,,0.00,Wunderground v.1.15,2013-09-09 23:05:00,
2013-09-09 19:15:00,56.6,51.2,30.10,ENE,60,0.0,0.0,82,0.00,,,0.00,Wunderground v.1.15,2013-09-09 23:15:00,
2013-09-09 19:20:00,56.4,51.3,30.10,ENE,60,0.0,0.0,83,0.00,,,0.00,Wunderground v.1.15,2013-09-09 23:20:00,
2013-09-09 19:30:00,56.0,50.9,30.10,ENE,60,0.0,0.0,83,0.00,,,0.00,Wunderground v.1.15,2013-09-09 23:30:00,
2013-09-09 19:40:00,55.8,51.0,30.09,ENE,60,0.0,0.0,84,0.00,,,0.00,Wunderground v.1.15,2013-09-09 23:40:00,
2013-09-09 19:45:00,55.8,51.4,30.10,ENE,60,0.0,0.0,85,0.00,,,0.00,Wunderground v.1.15,2013-09-09 23:45:00,
2013-09-09 19:55:00,55.7,51.3,30.10,ENE,60,0.0,0.0,85,0.00,,,0.00,Wunderground v.1.15,2013-09-09 23:55:00,
2013-09-09 20:00:00,55.8,51.4,30.10,ENE,60,0.0,0.0,85,0.00,,,0.00,Wunderground v.1.15,2013-09-10 00:00:00,
2013-09-09 20:10:00,55.9,51.5,30.10,ENE,60,0.0,0.0,85,0.00,,,0.00,Wunderground v.1.15,2013-09-10 00:10:00,
2013-09-09 20:20:00,56.0,51.9,30.10,ENE,60,0.0,0.0,86,0.00,,,0.00,Wunderground v.1.15,2013-09-10 00:20:00,
2013-09-09 20:30:00,55.9,51.8,30.10,ENE,60,0.0,0.0,86,0.00,,,0.00,Wunderground v.1.15,2013-09-10 00:30:00,
2013-09-09 20:40:00,55.7,51.6,30.10,ENE,60,0.0,0.0,86,0.00,,,0.00,Wunderground v.1.15,2013-09-10 00:40:00,
2013-09-09 20:45:00,55.7,51.3,30.10,ENE,60,0.0,0.0,85,0.00,,,0.00,Wunderground v.1.15,2013-09-10 00:45:00,
2013-09-09 20:55:00,55.9,51.8,30.11,ENE,60,0.0,0.0,86,0.00,,,0.00,Wunderground v.1.15,2013-09-10 00:55:00,
2013-09-09 21:00:00,55.9,51.8,30.11,ENE,60,0.0,0.0,86,0.00,,,0.00,Wunderground v.1.15,2013-09-10 01:00:00,
2013-09-09 21:10:00,55.8,51.7,30.10,ENE,60,0.0,0.0,86,0.00,,,0.00,Wunderground v.1.15,2013-09-10 01:10:00,
2013-09-09 21:20:00,55.7,50.9,30.10,ENE,60,0.0,0.0,84,0.00,,,0.00,Wunderground v.1.15,2013-09-10 01:20:00,
2013-09-09 21:30:00,55.8,51.7,30.10,ENE,60,0.0,0.0,86,0.00,,,0.00,Wunderground v.1.15,2013-09-10 01:30:00,
2013-09-09 21:40:00,55.7,51.3,30.10,ENE,60,0.0,0.0,85,0.00,,,0.00,Wunderground v.1.15,2013-09-10 01:40:00,
2013-09-09 21:50:00,55.6,51.5,30.10,ENE,60,0.0,0.0,86,0.00,,,0.00,Wunderground v.1.15,2013-09-10 01:50:00,
2013-09-09 22:00:00,55.3,50.9,30.09,ENE,60,0.0,0.0,85,0.00,,,0.00,Wunderground v.1.15,2013-09-10 02:00:00,
2013-09-09 22:05:00,55.2,51.1,30.09,ENE,60,0.0,0.0,86,0.00,,,0.00,Wunderground v.1.15,2013-09-10 02:05:00,
2013-09-09 22:15:00,54.9,50.8,30.10,ENE,60,0.0,0.0,86,0.00,,,0.00,Wunderground v.1.15,2013-09-10 02:15:00,
2013-09-09 22:25:00,54.6,50.5,30.10,ENE,60,0.0,0.0,86,0.00,,,0.00,Wunderground v.1.15,2013-09-10 02:25:00,
2013-09-09 22:30:00,54.4,50.3,30.10,ENE,60,0.0,0.0,86,0.00,,,0.00,Wunderground v.1.15,2013-09-10 02:30:00,
2013-09-09 22:40:00,54.2,50.4,30.09,ENE,60,0.0,0.0,87,0.00,,,0.00,Wunderground v.1.15,2013-09-10 02:40:00,
2013-09-09 22:50:00,54.1,50.3,30.09,ENE,60,0.0,0.0,87,0.00,,,0.00,Wunderground v.1.15,2013-09-10 02:50:00,
2013-09-09 23:00:00,54.0,50.5,30.09,ENE,60,0.0,0.0,88,0.00,,,0.00,Wunderground v.1.15,2013-09-10 03:00:00,
2013-09-09 23:10:00,53.8,50.3,30.10,ENE,60,0.0,0.0,88,0.00,,,0.00,Wunderground v.1.15,2013-09-10 03:10:00,
2013-09-09 23:20:00,53.6,50.1,30.09,ENE,60,0.0,0.0,88,0.00,,,0.00,Wunderground v.1.15,2013-09-10 03:20:00,
2013-09-09 23:30:00,53.3,49.8,30.10,ENE,60,0.0,0.0,88,0.00,,,0.00,Wunderground v.1.15,2013-09-10 03:30:00,
2013-09-09 23:35:00,53.1,49.6,30.10,ENE,60,0.0,0.0,88,0.00,,,0.00,Wunderground v.1.15,2013-09-10 03:35:00,
2013-09-09 23:45:00,52.8,49.9,30.10,ENE,60,0.0,0.0,90,0.00,,,0.00,Wunderground v.1.15,2013-09-10 03:45:00,
2013-09-09 23:55:00,52.5,49.7,30.10,ENE,60,0.0,0.0,90,0.00,,,0.00,Wunderground v.1.15,2013-09-10 03:55:00,